Time;durP1;ratioP1;P1;durP2;ratioP2;P2;SDS_P1;SDS_P2;PMS_P1;PMS_P2;Temp;Humidity;BMP_temperature;BMP_pressure;BME280_temperature;BME280_humidity;BME280_pressure;Samples;Min_cycle;Max_cycle;Signal;HPM_P1;HPM_P2
2022/03/18 00:02:21;;;;;;;14.38;4.38;;;;;;;1.01;100.00;98463.56;5031763;28;20232;-71
2022/03/18 00:04:48;;;;;;;9.85;3.28;;;;;;;0.99;100.00;98477.84;5030874;28;20471;-72
2022/03/18 00:07:15;;;;;;;16.05;4.45;;;;;;;0.93;100.00;98465.22;5030788;28;20040;-71
2022/03/18 00:09:41;;;;;;;12.52;3.92;;;;;;;0.97;100.00;98477.16;5029445;28;20075;-76
2022/03/18 00:12:13;;;;;;;12.63;3.85;;;;;;;0.84;100.00;98467.72;5032858;28;20048;-73
2022/03/18 00:14:41;;;;;;;16.25;3.92;;;;;;;0.79;100.00;98477.84;5031922;28;20041;-76
2022/03/18 00:17:08;;;;;;;11.98;4.05;;;;;;;0.77;100.00;98474.50;5030280;28;20338;-71
2022/03/18 00:19:38;;;;;;;14.85;4.07;;;;;;;0.82;100.00;98474.94;5032863;28;20349;-71
2022/03/18 00:22:05;;;;;;;11.02;3.55;;;;;;;0.86;100.00;98469.38;5034993;28;20364;-71
2022/03/18 00:24:32;;;;;;;16.35;4.22;;;;;;;0.82;100.00;98467.03;5033452;28;20609;-72
2022/03/18 00:26:58;;;;;;;15.55;4.00;;;;;;;0.73;100.00;98467.84;5032120;28;20063;-75
2022/03/18 00:29:25;;;;;;;9.63;3.67;;;;;;;0.75;100.00;98476.44;5031953;28;20032;-74
2022/03/18 00:31:51;;;;;;;10.23;3.92;;;;;;;0.69;100.00;98477.00;5029371;28;20041;-73
2022/03/18 00:34:17;;;;;;;12.25;4.70;;;;;;;0.69;100.00;98479.63;5032606;28;20233;-73
2022/03/18 00:36:43;;;;;;;15.25;4.07;;;;;;;0.64;100.00;98479.22;5031552;28;20484;-72
2022/03/18 00:39:08;;;;;;;10.05;3.60;;;;;;;0.61;100.00;98470.75;5030432;28;20365;-71
2022/03/18 00:41:34;;;;;;;16.48;4.82;;;;;;;0.59;100.00;98477.97;5033289;28;20132;-73
2022/03/18 00:43:59;;;;;;;11.30;4.10;;;;;;;0.55;100.00;98469.50;5032338;28;20064;-74
2022/03/18 00:46:25;;;;;;;11.55;4.35;;;;;;;0.59;100.00;98480.59;5029947;28;20052;-73
2022/03/18 00:54:20;;;;;;;19.65;3.88;;;;;;;0.71;100.00;98474.25;5031359;28;20047;-72
2022/03/18 00:56:46;;;;;;;11.00;4.00;;;;;;;0.61;100.00;98476.84;5032197;28;20296;-76
2022/03/18 00:59:11;;;;;;;14.60;4.88;;;;;;;0.55;100.00;98477.41;5031679;28;20037;-75
2022/03/18 01:01:37;;;;;;;9.50;4.28;;;;;;;0.57;100.00;98478.09;5030487;28;20041;-71
2022/03/18 01:04:04;;;;;;;12.65;4.50;;;;;;;0.55;100.00;98472.16;5030430;28;20140;-74
2022/03/18 01:06:35;;;;;;;15.90;3.88;;;;;;;0.50;100.00;98469.06;5030516;28;20036;-72
2022/03/18 01:09:02;;;;;;;19.13;4.30;;;;;;;0.46;100.00;98472.94;5031318;28;20045;-72
2022/03/18 01:11:29;;;;;;;14.15;3.80;;;;;;;0.49;100.00;98473.50;5032428;28;20464;-72
2022/03/18 01:13:54;;;;;;;10.48;3.55;;;;;;;0.57;100.00;98479.91;5029719;28;20581;-74
2022/03/18 01:16:20;;;;;;;10.75;3.17;;;;;;;0.57;100.00;98475.47;5031595;28;20036;-72
2022/03/18 01:18:45;;;;;;;12.13;3.40;;;;;;;0.54;100.00;98479.22;5031179;28;20041;-72
2022/03/18 01:21:11;;;;;;;14.13;4.13;;;;;;;0.55;100.00;98480.88;5031002;28;20022;-71
2022/03/18 01:23:36;;;;;;;16.75;4.53;;;;;;;0.50;100.00;98477.81;5032478;28;20116;-75
2022/03/18 01:26:02;;;;;;;12.90;4.10;;;;;;;0.49;100.00;98488.47;5032350;28;20367;-74
2022/03/18 01:28:29;;;;;;;11.15;3.92;;;;;;;0.47;100.00;98483.34;5030192;28;20049;-73
2022/03/18 01:30:55;;;;;;;11.25;3.42;;;;;;;0.42;100.00;98475.03;5029197;28;20453;-72
2022/03/18 01:33:20;;;;;;;15.07;3.67;;;;;;;0.46;100.00;98478.19;5032019;28;20669;-73
2022/03/18 01:35:46;;;;;;;13.13;4.47;;;;;;;0.43;100.00;98481.13;5029039;28;20384;-73
2022/03/18 01:38:11;;;;;;;14.52;3.58;;;;;;;0.38;100.00;98481.50;5029804;28;20067;-73
2022/03/18 01:40:37;;;;;;;9.88;3.50;;;;;;;0.43;100.00;98475.84;5031021;28;20232;-74
2022/03/18 01:43:07;;;;;;;8.68;3.50;;;;;;;0.48;100.00;98468.38;5029748;28;20037;-74
2022/03/18 01:45:32;;;;;;;10.70;3.40;;;;;;;0.59;100.00;98467.41;5031331;28;20503;-74
2022/03/18 01:47:58;;;;;;;10.55;3.47;;;;;;;0.57;100.00;98475.47;5031935;28;20045;-72
2022/03/18 01:50:23;;;;;;;13.10;3.40;;;;;;;0.56;100.00;98473.81;5029196;28;20479;-75
2022/03/18 01:52:49;;;;;;;9.00;3.30;;;;;;;0.59;100.00;98470.06;5031675;28;20060;-73
2022/03/18 01:55:16;;;;;;;8.88;3.03;;;;;;;0.65;100.00;98470.34;5030803;28;20025;-74
2022/03/18 01:57:43;;;;;;;9.48;3.40;;;;;;;0.71;100.00;98480.34;5029080;28;20065;-73
2022/03/18 02:00:10;;;;;;;11.73;3.05;;;;;;;0.65;100.00;98478.25;5029082;28;20037;-74
2022/03/18 02:02:39;;;;;;;13.25;3.17;;;;;;;0.60;100.00;98482.25;5012641;28;20033;-75
2022/03/18 02:05:05;;;;;;;6.47;2.90;;;;;;;0.47;100.00;98488.63;5012243;28;20048;-72
2022/03/18 02:07:31;;;;;;;11.43;2.75;;;;;;;0.61;100.00;98487.38;5013197;28;20555;-76
2022/03/18 02:09:57;;;;;;;13.95;3.40;;;;;;;0.55;100.00;98486.16;5012253;28;20479;-74
2022/03/18 02:12:22;;;;;;;12.90;2.90;;;;;;;0.42;100.00;98492.63;5012018;28;20045;-75
2022/03/18 02:14:48;;;;;;;8.45;2.95;;;;;;;0.33;100.00;98477.63;5011439;28;20357;-72
2022/03/18 02:17:16;;;;;;;10.02;3.33;;;;;;;0.41;100.00;98496.22;5009697;28;20107;-74
2022/03/18 02:19:43;;;;;;;12.27;3.25;;;;;;;0.34;100.00;98498.56;5013948;28;20038;-73
2022/03/18 02:22:18;;;;;;;16.70;4.82;;;;;;;0.35;100.00;98492.31;5013370;28;20037;-72
2022/03/18 02:24:45;;;;;;;15.27;6.40;;;;;;;0.19;100.00;98498.09;5014848;28;20067;-75
2022/03/18 02:27:12;;;;;;;12.63;5.03;;;;;;;0.19;100.00;98497.28;5011221;28;20083;-73
2022/03/18 02:29:38;;;;;;;12.25;4.13;;;;;;;0.13;100.00;98506.53;5013726;28;20079;-72
2022/03/18 02:32:05;;;;;;;15.32;3.50;;;;;;;0.07;100.00;98507.06;5025488;28;20460;-72
2022/03/18 02:34:31;;;;;;;10.00;3.22;;;;;;;0.15;100.00;98515.13;5030982;28;20488;-72
2022/03/18 02:36:58;;;;;;;9.73;3.10;;;;;;;0.05;100.00;98519.53;5029744;28;20029;-72
2022/03/18 02:39:23;;;;;;;11.18;3.50;;;;;;;0.04;100.00;98517.84;5029394;28;20412;-75
2022/03/18 02:41:49;;;;;;;13.10;3.25;;;;;;;0.16;100.00;98516.81;5030315;28;20067;-72
2022/03/18 02:44:15;;;;;;;10.02;3.40;;;;;;;0.15;100.00;98514.28;5031249;28;20123;-75
2022/03/18 02:46:41;;;;;;;16.02;4.20;;;;;;;0.04;100.00;98519.66;5029933;28;20041;-72
2022/03/18 02:49:07;;;;;;;8.95;3.85;;;;;;;0.02;100.00;98522.44;5027815;28;20036;-73
2022/03/18 02:51:36;;;;;;;18.45;3.72;;;;;;;-0.02;100.00;98523.66;5028227;28;20052;-73
2022/03/18 02:54:02;;;;;;;10.13;3.30;;;;;;;-0.02;100.00;98528.91;5029273;28;20498;-71
2022/03/18 02:56:27;;;;;;;17.58;6.13;;;;;;;-0.08;100.00;98521.53;5031331;28;20029;-72
2022/03/18 02:58:53;;;;;;;16.50;5.00;;;;;;;-0.18;100.00;98515.41;5030296;28;20076;-74
2022/03/18 03:01:18;;;;;;;15.73;5.40;;;;;;;-0.18;100.00;98531.19;5027185;28;20095;-72
2022/03/18 03:03:44;;;;;;;16.95;4.88;;;;;;;-0.30;100.00;98522.56;5026774;28;20045;-73
2022/03/18 03:08:54;;;;;;;9.88;3.50;;;;;;;-0.28;100.00;98544.28;5028691;28;20361;-74
2022/03/18 03:11:21;;;;;;;18.73;5.80;;;;;;;-0.28;100.00;98539.03;5030617;28;20384;-71
2022/03/18 03:13:47;;;;;;;20.20;5.13;;;;;;;-0.28;100.00;98537.22;5030996;28;20491;-72
2022/03/18 03:16:12;;;;;;;17.83;4.32;;;;;;;-0.37;100.00;98534.56;5027674;28;20044;-73
2022/03/18 03:18:38;;;;;;;12.18;4.63;;;;;;;-0.35;100.00;98533.44;5030089;28;20065;-73
2022/03/18 03:21:03;;;;;;;9.32;4.10;;;;;;;-0.33;100.00;98533.31;5029110;28;20040;-72
2022/03/18 03:23:29;;;;;;;6.30;3.47;;;;;;;-0.31;100.00;98537.50;5030440;28;20096;-72
2022/03/18 03:25:55;;;;;;;7.80;2.97;;;;;;;-0.23;100.00;98536.00;5027209;28;20086;-75
2022/03/18 03:28:21;;;;;;;9.68;3.53;;;;;;;-0.17;100.00;98540.75;5029576;28;20372;-72
2022/03/18 03:30:47;;;;;;;10.23;3.70;;;;;;;-0.15;100.00;98544.09;5027350;28;20045;-71
2022/03/18 03:33:13;;;;;;;10.35;3.10;;;;;;;-0.12;100.00;98547.28;5028658;28;20103;-75
2022/03/18 03:35:39;;;;;;;8.40;3.03;;;;;;;-0.10;100.00;98555.06;5027991;28;20558;-73
2022/03/18 03:38:05;;;;;;;7.18;2.30;;;;;;;-0.07;100.00;98562.72;5030325;28;20434;-71
2022/03/18 03:40:31;;;;;;;11.43;2.28;;;;;;;-0.03;100.00;98559.66;5028500;28;20033;-73
2022/03/18 03:42:57;;;;;;;9.95;2.30;;;;;;;-0.01;100.00;98559.53;5029622;28;20080;-72
2022/03/18 03:45:23;;;;;;;5.82;2.10;;;;;;;0.03;100.00;98563.59;5029915;28;20365;-73
2022/03/18 03:47:48;;;;;;;11.55;2.25;;;;;;;0.12;100.00;98577.75;5025655;28;20112;-75
2022/03/18 03:50:14;;;;;;;12.07;2.60;;;;;;;0.05;100.00;98569.53;5026362;28;20045;-77
2022/03/18 03:52:40;;;;;;;7.93;2.55;;;;;;;-0.02;100.00;98565.75;5027797;28;20040;-76
2022/03/18 03:55:08;;;;;;;9.10;2.85;;;;;;;0.04;100.00;98578.41;5027892;28;20037;-72
2022/03/18 03:57:34;;;;;;;11.93;2.65;;;;;;;-0.03;100.00;98572.81;5028751;28;20500;-73
2022/03/18 03:59:59;;;;;;;6.10;2.50;;;;;;;-0.09;100.00;98583.03;5029264;28;20037;-73
2022/03/18 04:02:27;;;;;;;7.28;2.53;;;;;;;-0.10;100.00;98586.63;5026218;28;20128;-71
2022/03/18 04:04:53;;;;;;;8.02;2.28;;;;;;;-0.02;100.00;98597.34;5031948;28;20049;-71
2022/03/18 04:07:19;;;;;;;6.13;2.50;;;;;;;-0.05;100.00;98603.72;5028357;28;20037;-71
2022/03/18 04:09:46;;;;;;;6.65;2.67;;;;;;;-0.04;100.00;98599.28;5028103;28;20099;-71
2022/03/18 04:12:12;;;;;;;9.75;2.58;;;;;;;-0.12;100.00;98609.63;5028893;28;20033;-75
2022/03/18 04:14:37;;;;;;;8.55;2.97;;;;;;;-0.20;100.00;98615.53;5033489;28;20037;-71
2022/03/18 04:17:03;;;;;;;7.95;2.30;;;;;;;-0.35;100.00;98614.19;5030290;28;20033;-73
2022/03/18 04:19:29;;;;;;;8.57;2.85;;;;;;;-0.36;100.00;98617.78;5029478;28;20037;-75
2022/03/18 04:21:55;;;;;;;13.15;3.00;;;;;;;-0.32;100.00;98617.38;5030697;28;20061;-72
2022/03/18 04:24:20;;;;;;;10.68;2.28;;;;;;;-0.38;100.00;98615.28;5032334;28;20037;-74
2022/03/18 04:26:46;;;;;;;7.68;2.25;;;;;;;-0.50;100.00;98613.66;5030840;28;20083;-75
2022/03/18 04:29:12;;;;;;;14.18;3.13;;;;;;;-0.48;100.00;98619.59;5032192;28;20029;-74
2022/03/18 04:31:39;;;;;;;12.05;2.40;;;;;;;-0.49;100.00;98617.94;5031104;28;20473;-73
2022/03/18 04:34:04;;;;;;;7.43;2.30;;;;;;;-0.35;100.00;98630.78;5031154;28;20064;-72
2022/03/18 04:36:30;;;;;;;9.57;2.35;;;;;;;-0.40;100.00;98626.88;5030955;28;20426;-74
2022/03/18 04:38:56;;;;;;;9.40;2.30;;;;;;;-0.43;100.00;98637.66;5030634;28;20320;-74
2022/03/18 04:41:22;;;;;;;8.20;2.35;;;;;;;-0.43;100.00;98641.13;5031415;28;20454;-72
2022/03/18 04:43:48;;;;;;;7.47;2.15;;;;;;;-0.38;100.00;98631.06;5031734;28;20033;-71
2022/03/18 04:46:14;;;;;;;15.15;2.40;;;;;;;-0.43;100.00;98633.22;5029182;28;20590;-75
2022/03/18 04:48:40;;;;;;;15.13;2.45;;;;;;;-0.44;100.00;98626.31;5031609;28;20040;-74
2022/03/18 04:51:05;;;;;;;8.48;2.33;;;;;;;-0.46;100.00;98641.38;5027584;28;20487;-71
2022/03/18 04:53:31;;;;;;;10.80;2.55;;;;;;;-0.54;100.00;98649.06;5033108;28;20420;-71
2022/03/18 04:55:56;;;;;;;11.80;3.47;;;;;;;-0.54;100.00;98653.47;5032705;28;20052;-71
2022/03/18 04:58:22;;;;;;;11.38;3.75;;;;;;;-0.61;100.00;98655.78;5031717;28;20032;-74
2022/03/18 05:00:47;;;;;;;12.68;3.67;;;;;;;-0.63;100.00;98650.63;5031840;28;20045;-70
2022/03/18 05:03:13;;;;;;;9.40;3.13;;;;;;;-0.59;100.00;98659.94;5032075;28;20033;-71
2022/03/18 05:05:38;;;;;;;8.27;2.60;;;;;;;-0.62;100.00;98667.28;5029688;28;20107;-73
2022/03/18 05:08:04;;;;;;;9.43;3.35;;;;;;;-0.61;100.00;98667.13;5030537;28;20045;-73
2022/03/18 05:10:30;;;;;;;11.90;3.13;;;;;;;-0.60;100.00;98673.22;5030990;28;20037;-71
2022/03/18 05:12:56;;;;;;;10.88;3.38;;;;;;;-0.64;100.00;98675.25;5031354;28;20487;-74
2022/03/18 05:15:23;;;;;;;14.52;4.57;;;;;;;-0.68;100.00;98670.38;5031433;28;20043;-75
2022/03/18 05:17:51;;;;;;;10.88;3.17;;;;;;;-0.67;100.00;98672.06;5031709;28;20037;-71
2022/03/18 05:20:18;;;;;;;9.60;3.17;;;;;;;-0.70;100.00;98681.03;5028828;28;20044;-73
2022/03/18 05:22:45;;;;;;;12.27;3.28;;;;;;;-0.76;100.00;98678.06;5029456;28;20051;-72
2022/03/18 05:25:12;;;;;;;11.82;2.80;;;;;;;-0.78;100.00;98687.84;5030813;28;20036;-71
2022/03/18 05:27:46;;;;;;;10.35;2.10;;;;;;;-0.71;100.00;98689.84;5030228;28;20056;-74
2022/03/18 05:30:15;;;;;;;9.25;1.95;;;;;;;-0.71;100.00;98694.28;5026325;28;20073;-75
2022/03/18 05:32:41;;;;;;;6.07;1.60;;;;;;;-0.64;100.00;98692.84;5030953;28;20483;-71
2022/03/18 05:35:08;;;;;;;11.52;1.92;;;;;;;-0.60;100.00;98689.84;5029547;28;20040;-71
2022/03/18 05:37:34;;;;;;;7.55;2.05;;;;;;;-0.53;100.00;98697.25;5031828;28;20040;-71
2022/03/18 05:39:59;;;;;;;10.57;2.20;;;;;;;-0.52;100.00;98691.03;5031901;28;20372;-73
2022/03/18 05:42:26;;;;;;;11.52;2.40;;;;;;;-0.46;100.00;98698.41;5029772;28;20136;-71
2022/03/18 05:44:53;;;;;;;9.52;1.80;;;;;;;-0.39;100.00;98697.81;5029474;28;20092;-71
2022/03/18 05:47:18;;;;;;;11.85;1.90;;;;;;;-0.39;100.00;98696.94;5031194;28;20029;-71
2022/03/18 05:49:45;;;;;;;11.88;2.17;;;;;;;-0.40;100.00;98693.47;5030656;28;20049;-73
2022/03/18 05:52:11;;;;;;;14.32;2.90;;;;;;;-0.22;100.00;98685.06;5029688;28;20469;-71
2022/03/18 05:54:36;;;;;;;9.48;2.20;;;;;;;-0.29;100.00;98682.91;5031890;28;20076;-71
2022/03/18 05:57:02;;;;;;;9.40;1.73;;;;;;;-0.20;100.00;98697.13;5027667;28;20124;-71
2022/03/18 05:59:32;;;;;;;6.88;1.50;;;;;;;-0.14;100.00;98696.63;5030690;28;20575;-74
2022/03/18 06:01:59;;;;;;;6.53;1.30;;;;;;;-0.08;100.00;98701.38;5030249;28;20052;-73
2022/03/18 06:04:26;;;;;;;9.65;2.47;;;;;;;-0.11;100.00;98693.72;5031434;28;20045;-73
2022/03/18 06:06:52;;;;;;;5.43;1.63;;;;;;;-0.04;100.00;98708.03;5031468;28;20538;-71
2022/03/18 06:12:04;;;;;;;10.23;2.65;;;;;;;-0.08;100.00;98722.44;5031388;28;20037;-72
2022/03/18 06:14:31;;;;;;;9.20;2.20;;;;;;;-0.15;100.00;98723.06;5031144;28;20225;-75
2022/03/18 06:17:02;;;;;;;10.13;2.63;;;;;;;-0.11;100.00;98724.47;5029973;28;20440;-72
2022/03/18 06:19:29;;;;;;;8.65;1.80;;;;;;;0.00;100.00;98721.81;5030156;28;20494;-73
2022/03/18 06:21:55;;;;;;;8.80;1.80;;;;;;;0.05;100.00;98719.59;5027655;28;20044;-73
2022/03/18 06:24:21;;;;;;;9.07;2.00;;;;;;;0.08;100.00;98706.22;5029250;28;20037;-72
2022/03/18 06:26:48;;;;;;;6.75;1.10;;;;;;;0.20;100.00;98709.59;5029721;28;20045;-72
2022/03/18 06:29:14;;;;;;;6.57;1.35;;;;;;;0.28;100.00;98720.31;5028854;28;20037;-74
2022/03/18 06:31:40;;;;;;;3.60;0.93;;;;;;;0.39;100.00;98719.41;5028420;28;20472;-72
2022/03/18 06:34:07;;;;;;;4.57;1.30;;;;;;;0.43;100.00;98726.09;5030116;28;20041;-73
2022/03/18 06:36:33;;;;;;;5.85;1.70;;;;;;;0.51;100.00;98726.28;5029229;28;20076;-72
2022/03/18 06:38:59;;;;;;;5.25;1.38;;;;;;;0.50;100.00;98712.28;5028528;28;20598;-72
2022/03/18 06:41:25;;;;;;;8.55;2.25;;;;;;;0.61;100.00;98734.25;5026842;28;20052;-73
2022/03/18 06:43:51;;;;;;;4.60;1.42;;;;;;;0.60;100.00;98720.22;5028952;28;20496;-73
2022/03/18 06:46:17;;;;;;;2.85;0.88;;;;;;;0.69;100.00;98727.34;5028991;28;20044;-72
2022/03/18 06:48:42;;;;;;;7.55;2.20;;;;;;;0.81;100.00;98742.13;5030612;28;20060;-73
2022/03/18 06:51:09;;;;;;;3.00;1.23;;;;;;;0.88;100.00;98736.34;5026998;28;20041;-75
2022/03/18 06:53:34;;;;;;;5.03;1.10;;;;;;;0.94;100.00;98739.28;5029245;28;20049;-72
2022/03/18 06:56:00;;;;;;;5.93;1.55;;;;;;;1.02;100.00;98750.00;5028144;28;20032;-72
2022/03/18 06:58:29;;;;;;;5.72;1.40;;;;;;;1.08;100.00;98764.44;5028028;28;20036;-72
2022/03/18 07:00:55;;;;;;;4.07;1.17;;;;;;;1.13;100.00;98770.16;5026369;28;20075;-73
2022/03/18 07:03:20;;;;;;;9.68;1.50;;;;;;;1.20;100.00;98773.94;5029374;28;20524;-75
2022/03/18 07:05:46;;;;;;;5.85;0.90;;;;;;;1.27;100.00;98785.63;5025124;28;20396;-72
2022/03/18 07:08:12;;;;;;;5.22;0.95;;;;;;;1.34;100.00;98781.50;5028502;28;20122;-72
2022/03/18 07:10:38;;;;;;;4.50;1.00;;;;;;;1.33;100.00;98782.47;5030030;28;20691;-71
2022/03/18 07:13:04;;;;;;;3.33;1.10;;;;;;;1.29;100.00;98780.22;5025922;28;20041;-75
2022/03/18 07:15:29;;;;;;;6.63;1.00;;;;;;;1.30;100.00;98785.34;5025836;28;20041;-72
2022/03/18 07:17:55;;;;;;;3.10;0.90;;;;;;;1.25;100.00;98784.09;5031835;28;20128;-72
2022/03/18 07:20:24;;;;;;;3.92;0.95;;;;;;;1.33;100.00;98790.38;5030039;28;20037;-72
2022/03/18 07:23:21;;;;;;;14.95;1.38;;;;;;;1.31;100.00;98794.94;5029229;28;20465;-72
2022/03/18 07:25:48;;;;;;;5.57;1.20;;;;;;;1.32;100.00;98790.47;5013378;28;20131;-72
2022/03/18 07:28:15;;;;;;;10.40;1.10;;;;;;;1.34;100.00;98793.84;5028737;28;20473;-71
2022/03/18 07:30:43;;;;;;;3.22;0.85;;;;;;;1.36;100.00;98790.09;5028298;28;20583;-74
2022/03/18 07:33:09;;;;;;;5.10;1.00;;;;;;;1.35;100.00;98803.44;5028978;28;20041;-72
2022/03/18 07:35:35;;;;;;;5.53;1.38;;;;;;;1.39;100.00;98794.25;5030893;28;20463;-72
2022/03/18 07:38:02;;;;;;;6.43;1.42;;;;;;;1.39;100.00;98783.72;5028481;28;20698;-71
2022/03/18 07:40:28;;;;;;;4.30;1.08;;;;;;;1.43;100.00;98787.75;5033554;28;20041;-75
2022/03/18 07:42:55;;;;;;;4.70;0.80;;;;;;;1.48;100.00;98792.63;5030863;28;20521;-73
2022/03/18 07:45:29;;;;;;;2.85;1.00;;;;;;;1.51;100.00;98784.44;5027766;28;22427;-72
2022/03/18 07:47:57;;;;;;;2.42;1.00;;;;;;;1.55;100.00;98788.47;5031312;28;20116;-72
2022/03/18 07:50:25;;;;;;;2.90;1.40;;;;;;;1.58;100.00;98785.59;5030993;28;20086;-72
2022/03/18 07:52:53;;;;;;;11.82;1.10;;;;;;;1.61;100.00;98782.66;5033929;28;20059;-71
2022/03/18 07:55:20;;;;;;;4.43;1.00;;;;;;;1.67;100.00;98790.03;5033151;28;20075;-72
2022/03/18 07:57:46;;;;;;;2.50;0.88;;;;;;;1.70;100.00;98784.47;5032404;28;20517;-73
2022/03/18 08:00:14;;;;;;;1.88;0.70;;;;;;;1.83;100.00;98768.41;5030101;28;20037;-72
2022/03/18 08:02:44;;;;;;;3.33;0.80;;;;;;;1.91;100.00;98779.94;5033567;28;20036;-74
2022/03/18 08:05:10;;;;;;;3.28;1.00;;;;;;;1.95;100.00;98770.78;5031939;28;20523;-72
2022/03/18 08:07:36;;;;;;;1.98;0.60;;;;;;;2.06;100.00;98771.63;5033939;28;20098;-75
2022/03/18 08:10:03;;;;;;;3.30;0.70;;;;;;;2.12;100.00;98781.63;5033358;28;20121;-71
2022/03/18 08:12:29;;;;;;;7.20;0.80;;;;;;;2.16;100.00;98794.41;5034134;28;20464;-72
2022/03/18 08:14:57;;;;;;;3.25;0.95;;;;;;;2.26;100.00;98799.72;5032858;28;20166;-72
2022/03/18 08:17:23;;;;;;;2.45;0.88;;;;;;;2.47;100.00;98810.13;5031500;28;20539;-75
2022/03/18 08:19:50;;;;;;;2.05;0.70;;;;;;;2.58;100.00;98820.56;5030944;28;20081;-72
2022/03/18 08:22:16;;;;;;;4.10;0.73;;;;;;;2.70;100.00;98806.19;5033344;28;20029;-73
2022/03/18 08:24:41;;;;;;;2.97;0.60;;;;;;;2.84;100.00;98810.22;5032250;28;20044;-71
2022/03/18 08:27:07;;;;;;;1.90;0.65;;;;;;;2.98;100.00;98815.06;5031870;28;20479;-72
2022/03/18 08:29:32;;;;;;;2.05;0.63;;;;;;;3.02;100.00;98805.84;5033654;28;20498;-74
2022/03/18 08:31:58;;;;;;;2.63;0.68;;;;;;;3.12;100.00;98802.34;5032569;28;20052;-74
2022/03/18 08:34:23;;;;;;;9.20;1.05;;;;;;;3.27;100.00;98814.16;5027753;28;20025;-74
2022/03/18 08:36:49;;;;;;;4.95;0.70;;;;;;;3.41;100.00;98820.75;5000924;28;20068;-72
2022/03/18 08:39:15;;;;;;;2.00;0.60;;;;;;;3.54;96.85;98815.97;5010595;28;20330;-72
2022/03/18 08:41:41;;;;;;;2.38;0.75;;;;;;;3.63;99.27;98818.56;5011012;28;20038;-72
2022/03/18 08:44:06;;;;;;;2.53;0.80;;;;;;;3.79;98.73;98817.09;5009176;28;20045;-73
2022/03/18 08:46:34;;;;;;;1.45;0.52;;;;;;;3.95;91.43;98821.72;5013953;28;20468;-72
2022/03/18 08:49:00;;;;;;;2.70;0.80;;;;;;;4.04;89.86;98820.81;5013266;28;20111;-74
2022/03/18 08:51:25;;;;;;;1.17;0.50;;;;;;;4.11;85.20;98824.56;5012781;28;20065;-72
2022/03/18 08:53:51;;;;;;;1.88;0.40;;;;;;;4.21;85.67;98811.25;5010222;28;20045;-71
2022/03/18 08:56:16;;;;;;;2.45;0.70;;;;;;;4.21;80.31;98803.31;5009315;28;20076;-72
2022/03/18 08:58:42;;;;;;;1.60;0.77;;;;;;;4.33;81.06;98810.84;5011174;28;20088;-72
2022/03/18 09:01:07;;;;;;;2.35;0.70;;;;;;;4.40;81.01;98811.09;5017762;28;20067;-72
2022/03/18 09:03:32;;;;;;;4.63;0.90;;;;;;;4.53;79.07;98810.72;5031110;28;20563;-72
2022/03/18 09:05:59;;;;;;;4.07;0.73;;;;;;;4.64;84.53;98811.28;5029614;28;20118;-73
2022/03/18 09:08:25;;;;;;;3.05;0.55;;;;;;;4.91;84.33;98809.50;5028129;28;20475;-72
2022/03/18 09:10:50;;;;;;;1.20;0.40;;;;;;;5.08;75.44;98816.59;5031458;28;20517;-73
2022/03/18 09:13:15;;;;;;;1.67;0.60;;;;;;;5.18;78.62;98812.00;5029200;28;20115;-71
2022/03/18 09:15:41;;;;;;;2.15;0.50;;;;;;;5.35;74.28;98820.03;5029874;28;20029;-73
2022/03/18 09:18:07;;;;;;;1.20;0.30;;;;;;;5.47;73.99;98821.44;5030743;28;20048;-72
2022/03/18 09:20:32;;;;;;;1.20;0.40;;;;;;;5.54;69.37;98817.16;5031325;28;20500;-72
2022/03/18 09:22:58;;;;;;;2.92;0.80;;;;;;;5.67;63.50;98822.03;5028718;28;20044;-71
2022/03/18 09:25:23;;;;;;;2.42;0.55;;;;;;;5.74;66.44;98823.88;5028852;28;20037;-74
2022/03/18 09:27:51;;;;;;;1.98;0.63;;;;;;;5.81;62.27;98816.94;5031947;28;20037;-72
2022/03/18 09:30:16;;;;;;;2.08;0.52;;;;;;;5.93;63.97;98817.50;5029362;28;20038;-73
2022/03/18 09:32:42;;;;;;;2.97;0.57;;;;;;;6.16;59.92;98815.09;5032403;28;20037;-76
2022/03/18 09:35:10;;;;;;;2.35;0.57;;;;;;;6.24;54.94;98819.59;5007583;28;20037;-72
2022/03/18 09:37:35;;;;;;;2.42;0.63;;;;;;;6.37;60.69;98819.91;5031804;28;20132;-72
2022/03/18 09:40:04;;;;;;;1.73;0.50;;;;;;;6.56;62.94;98826.78;5029803;28;20477;-74
2022/03/18 09:42:32;;;;;;;1.23;0.50;;;;;;;6.73;61.67;98835.59;5028278;28;20064;-72
2022/03/18 09:44:58;;;;;;;1.25;0.40;;;;;;;6.81;55.67;98820.44;5030051;28;20028;-73
2022/03/18 09:47:24;;;;;;;1.23;0.70;;;;;;;6.94;50.07;98828.75;5030411;28;20043;-72
2022/03/18 09:49:50;;;;;;;4.88;0.70;;;;;;;7.06;47.56;98815.91;5030124;28;20037;-73
2022/03/18 09:52:15;;;;;;;2.58;0.60;;;;;;;7.12;49.36;98820.56;5029688;28;20072;-72
2022/03/18 09:54:41;;;;;;;4.70;0.60;;;;;;;7.28;48.98;98837.53;5033579;28;20057;-75
2022/03/18 09:57:06;;;;;;;2.55;0.50;;;;;;;7.32;45.98;98830.88;5031032;28;20482;-75
2022/03/18 09:59:32;;;;;;;1.98;0.60;;;;;;;7.56;48.31;98844.13;5032074;28;20127;-74
2022/03/18 10:02:22;;;;;;;9.95;0.73;;;;;;;7.71;45.11;98842.41;5028291;28;20044;-71
2022/03/18 10:05:00;;;;;;;2.90;0.68;;;;;;;7.89;44.49;98850.16;5031125;28;20053;-75
2022/03/18 10:07:26;;;;;;;1.42;0.40;;;;;;;8.07;42.46;98853.38;5030586;28;20464;-72
2022/03/18 10:10:15;;;;;;;2.10;0.40;;;;;;;8.25;40.69;98868.28;5030037;28;20052;-72
2022/03/18 10:12:49;;;;;;;1.15;0.45;;;;;;;8.46;41.10;98851.72;5027870;28;20076;-72
2022/03/18 10:15:16;;;;;;;2.45;0.80;;;;;;;8.80;40.77;98859.31;5028645;28;20526;-75
2022/03/18 10:17:45;;;;;;;2.95;1.25;;;;;;;9.09;38.43;98848.69;5028761;28;20038;-72
2022/03/18 10:20:42;;;;;;;4.45;1.48;;;;;;;9.37;36.90;98848.94;5031565;28;20618;-74
2022/03/18 10:23:16;;;;;;;3.88;1.42;;;;;;;9.76;37.18;98858.53;5027510;28;20037;-72
2022/03/18 10:25:56;;;;;;;2.15;0.77;;;;;;;10.19;36.88;98856.81;5028983;28;20076;-74
2022/03/18 10:28:37;;;;;;;2.92;0.93;;;;;;;11.03;34.59;98851.75;5030679;28;20547;-71
2022/03/18 10:31:29;;;;;;;2.65;1.33;;;;;;;13.35;31.05;98852.69;5028472;28;20041;-75
2022/03/18 10:39:35;;;;;;;3.67;0.90;;;;;;;18.65;23.65;98851.13;5028407;28;20044;-72
2022/03/18 10:42:09;;;;;;;3.10;0.70;;;;;;;19.16;22.73;98837.66;5031290;28;20038;-75
2022/03/18 10:44:51;;;;;;;1.52;0.60;;;;;;;20.15;20.71;98848.63;5026583;28;20044;-75
2022/03/18 10:47:29;;;;;;;1.33;0.50;;;;;;;21.12;20.82;98846.97;5027972;28;20116;-71
2022/03/18 10:50:19;;;;;;;2.50;0.68;;;;;;;22.41;19.82;98837.47;5028509;28;20039;-72
2022/03/18 10:52:47;;;;;;;1.50;0.60;;;;;;;22.75;19.96;98854.19;5027661;28;20160;-73
2022/03/18 10:55:24;;;;;;;2.75;1.25;;;;;;;22.42;18.50;98849.19;5028692;28;20033;-74
2022/03/18 10:57:54;;;;;;;3.95;0.77;;;;;;;21.59;19.03;98860.72;5029884;28;20041;-76
2022/03/18 11:00:21;;;;;;;4.68;2.10;;;;;;;21.69;23.05;98860.78;5027272;28;20037;-71
2022/03/18 11:02:52;;;;;;;1.83;0.65;;;;;;;23.11;19.99;98850.72;5015407;28;20040;-71
2022/03/18 11:05:22;;;;;;;1.83;0.70;;;;;;;23.98;27.64;98860.53;5011210;28;20046;-72
2022/03/18 11:07:50;;;;;;;3.35;0.88;;;;;;;23.12;25.54;98864.13;5011994;28;20366;-71
2022/03/18 11:13:05;;;;;;;2.25;0.60;;;;;;;23.98;20.52;98849.59;5011808;28;20103;-73
2022/03/18 11:15:31;;;;;;;1.45;0.60;;;;;;;24.92;20.63;98855.19;5013617;28;20040;-71
2022/03/18 11:17:58;;;;;;;2.20;0.60;;;;;;;24.65;23.09;98848.22;5011088;28;20124;-71
2022/03/18 11:20:27;;;;;;;1.98;0.68;;;;;;;25.46;24.93;98866.03;5013514;28;20033;-71
2022/03/18 11:22:54;;;;;;;4.22;0.80;;;;;;;25.40;27.97;98858.13;5012376;28;20065;-72
2022/03/18 11:25:21;;;;;;;1.98;0.73;;;;;;;25.62;26.68;98854.94;5013461;28;20106;-71
2022/03/18 11:27:47;;;;;;;2.33;0.85;;;;;;;26.08;17.24;98852.56;5014297;28;20303;-71
2022/03/18 11:30:21;;;;;;;3.03;0.80;;;;;;;26.66;18.68;98857.88;5010898;28;20030;-73
2022/03/18 11:33:12;;;;;;;2.67;0.82;;;;;;;28.12;19.35;98846.72;5030650;28;20033;-72
2022/03/18 11:35:47;;;;;;;3.05;0.70;;;;;;;28.45;17.21;98848.25;5029495;28;20072;-74
2022/03/18 11:38:14;;;;;;;2.60;0.88;;;;;;;28.16;18.41;98850.47;5030486;28;20037;-72
2022/03/18 11:41:02;;;;;;;3.78;0.90;;;;;;;28.03;15.37;98847.44;5030084;28;20127;-71
2022/03/18 11:43:35;;;;;;;4.72;0.80;;;;;;;28.34;15.97;98846.84;5029628;28;20064;-74
2022/03/18 11:46:13;;;;;;;3.35;1.08;;;;;;;27.97;19.16;98851.41;5029701;28;20541;-71
2022/03/18 11:48:46;;;;;;;5.53;0.73;;;;;;;27.00;15.20;98832.94;4330620;28;10000551;-72
2022/03/18 11:51:30;;;;;;;3.42;0.70;;;;;;;25.39;16.38;98848.28;5026002;28;20642;-73